METAR Data
IDs: Format: Raw Decoded Include TAF

Data at: 0235 UTC 29 Nov 2020

METAR for:KFOD (Fort Dodge Rgnl, IA, US)
Text:KFOD 290156Z AUTO 19006KT 10SM CLR 04/01 A2996 RMK AO2 SLP184 T00440006
Temperature: 4.4°C ( 40°F)
Dewpoint: 0.6°C ( 33°F) [RH = 76%]
Pressure (altimeter):29.96 inches Hg (1014.6 mb) [Sea level pressure: 1018.4 mb]
Winds:from the S (190 degrees) at 7 MPH (6 knots; 3.1 m/s)
Visibility:10 or more sm (16+ km)
Ceiling:at least 12,000 feet AGL
Clouds:sky clear below 12,000 feet AGL
QC Flag:automated observation with no human augmentation